Time;durP1;ratioP1;P1;durP2;ratioP2;P2;SDS_P1;SDS_P2;PMS_P1;PMS_P2;Temp;Humidity;BMP_temperature;BMP_pressure;BME280_temperature;BME280_humidity;BME280_pressure;Samples;Min_cycle;Max_cycle;Signal;HPM_P1;HPM_P2
2023/07/18 00:00:35;;;;;;;2.90;1.90;;;;;;;24.85;53.91;100852.38;5030894;28;20180;-60
2023/07/18 00:03:02;;;;;;;2.23;1.30;;;;;;;24.84;53.50;100847.81;5067759;28;20433;-61
2023/07/18 00:05:27;;;;;;;3.83;1.60;;;;;;;24.85;53.66;100855.28;5068723;28;20461;-59
2023/07/18 00:07:52;;;;;;;2.73;1.50;;;;;;;24.84;53.61;100847.81;5056424;28;20449;-60
2023/07/18 00:10:19;;;;;;;3.73;1.80;;;;;;;24.84;53.80;100856.50;5047956;28;20168;-61
2023/07/18 00:12:44;;;;;;;3.60;1.70;;;;;;;24.83;53.80;100851.97;5055167;28;20245;-60
2023/07/18 00:15:10;;;;;;;2.53;1.30;;;;;;;24.83;53.85;100848.25;5044284;28;20462;-60
2023/07/18 00:17:36;;;;;;;3.20;1.87;;;;;;;24.82;53.60;100850.31;5030804;28;20915;-60
2023/07/18 00:20:04;;;;;;;6.63;1.90;;;;;;;24.83;53.57;100857.72;5029461;28;20193;-61
2023/07/18 00:22:30;;;;;;;3.67;1.93;;;;;;;24.83;53.97;100857.72;5029565;28;20190;-60
2023/07/18 00:24:55;;;;;;;3.33;1.80;;;;;;;24.82;53.91;100858.13;5031321;28;20474;-60
2023/07/18 00:27:21;;;;;;;4.30;1.70;;;;;;;24.73;53.35;100849.88;5043913;28;20191;-60
2023/07/18 00:29:46;;;;;;;5.00;2.07;;;;;;;24.62;53.40;100851.94;5056939;28;20171;-60
2023/07/18 00:32:11;;;;;;;4.90;1.77;;;;;;;24.57;53.10;100852.28;5046057;28;20176;-60
2023/07/18 00:34:40;;;;;;;5.30;2.60;;;;;;;24.54;53.10;100856.00;5043099;28;20170;-61
2023/07/18 00:37:06;;;;;;;7.47;1.97;;;;;;;24.46;51.83;100848.56;5043707;28;20222;-61
2023/07/18 00:39:31;;;;;;;5.13;2.10;;;;;;;24.43;51.99;100843.59;5045326;28;20442;-61
2023/07/18 00:41:57;;;;;;;3.90;2.17;;;;;;;24.42;51.01;100839.06;5046572;28;20882;-59
2023/07/18 00:44:22;;;;;;;6.13;2.13;;;;;;;24.43;51.69;100834.13;5045925;28;20245;-61
2023/07/18 00:46:48;;;;;;;11.43;2.13;;;;;;;24.36;51.70;100836.97;5067479;28;20233;-60
2023/07/18 00:49:13;;;;;;;8.47;2.20;;;;;;;24.39;51.10;100831.19;5055474;28;20191;-61
2023/07/18 00:51:39;;;;;;;5.03;2.53;;;;;;;24.33;51.27;100827.06;5048700;28;20191;-61
2023/07/18 00:54:05;;;;;;;10.00;2.60;;;;;;;24.36;50.49;100825.44;5056189;28;20262;-62
2023/07/18 00:56:30;;;;;;;4.53;2.00;;;;;;;24.26;50.53;100821.28;5038542;28;20971;-61
2023/07/18 00:58:55;;;;;;;8.97;2.03;;;;;;;24.09;51.20;100821.22;5008695;28;20887;-61
2023/07/18 01:01:21;;;;;;;5.20;2.20;;;;;;;23.93;52.23;100815.78;5027636;28;20172;-60
2023/07/18 01:03:46;;;;;;;6.20;2.57;;;;;;;23.92;52.56;100822.78;5043964;28;20181;-60
2023/07/18 01:06:12;;;;;;;16.83;2.20;;;;;;;23.98;52.52;100824.06;5050154;28;20187;-62
2023/07/18 01:08:39;;;;;;;4.07;1.93;;;;;;;24.06;52.53;100822.88;5044791;28;20180;-61
2023/07/18 01:11:06;;;;;;;9.67;2.13;;;;;;;24.11;52.23;100824.53;5027504;28;20190;-60
2023/07/18 01:13:31;;;;;;;6.73;2.40;;;;;;;24.14;52.58;100820.84;5039775;28;20795;-60
2023/07/18 01:15:57;;;;;;;8.00;2.17;;;;;;;24.13;51.93;100822.88;5056012;28;20465;-60
2023/07/18 01:18:22;;;;;;;6.13;1.90;;;;;;;24.11;52.14;100819.59;5061965;28;20187;-61
2023/07/18 01:20:48;;;;;;;10.80;3.13;;;;;;;24.08;52.10;100825.34;5066559;28;20598;-60
2023/07/18 01:23:14;;;;;;;7.70;2.00;;;;;;;24.07;52.29;100824.50;5065863;28;20170;-61
2023/07/18 01:25:40;;;;;;;6.50;2.00;;;;;;;24.08;52.01;100829.03;5049629;28;21118;-60
2023/07/18 01:28:06;;;;;;;5.43;2.83;;;;;;;24.08;51.84;100820.38;5063510;28;20187;-60
2023/07/18 01:30:31;;;;;;;5.83;1.70;;;;;;;24.09;52.04;100822.03;5062806;28;20456;-61
2023/07/18 01:32:57;;;;;;;4.67;1.80;;;;;;;24.09;52.24;100821.22;5042027;28;20500;-59
2023/07/18 01:35:25;;;;;;;7.13;2.20;;;;;;;24.07;52.04;100818.75;5073066;28;20257;-60
2023/07/18 01:37:50;;;;;;;6.70;1.80;;;;;;;24.07;52.10;100817.91;5067512;28;20206;-60
2023/07/18 01:40:19;;;;;;;6.73;2.17;;;;;;;24.07;52.24;100812.13;5042265;28;20829;-60
2023/07/18 01:42:45;;;;;;;5.17;2.13;;;;;;;24.06;52.16;100814.22;5051887;28;20247;-61
2023/07/18 01:45:11;;;;;;;8.00;2.03;;;;;;;24.05;52.30;100805.94;5065217;28;20441;-61
2023/07/18 01:47:39;;;;;;;4.50;1.70;;;;;;;24.02;52.00;100801.81;5064915;28;20714;-61
2023/07/18 01:50:07;;;;;;;4.07;2.20;;;;;;;24.03;51.91;100800.59;5054117;28;20636;-60
2023/07/18 01:52:33;;;;;;;4.97;2.20;;;;;;;24.03;52.01;100800.59;5055738;28;20423;-61
2023/07/18 01:54:59;;;;;;;4.57;1.80;;;;;;;24.01;52.17;100790.69;5060632;28;21067;-61
2023/07/18 01:57:28;;;;;;;5.10;2.33;;;;;;;24.01;52.03;100791.53;5046407;28;20674;-61
2023/07/18 01:59:54;;;;;;;5.87;1.70;;;;;;;24.00;51.73;100789.03;5012752;28;20476;-60
2023/07/18 02:02:20;;;;;;;8.23;2.20;;;;;;;23.98;52.14;100788.63;5062384;28;21412;-61
2023/07/18 02:04:46;;;;;;;4.90;1.93;;;;;;;23.98;51.98;100792.31;5065608;28;20476;-61
2023/07/18 02:07:11;;;;;;;4.97;2.27;;;;;;;23.96;51.89;100789.03;5053625;28;20434;-59
2023/07/18 02:09:37;;;;;;;5.47;2.20;;;;;;;23.97;51.83;100793.56;5046194;28;20399;-61
2023/07/18 02:12:03;;;;;;;5.50;2.07;;;;;;;23.95;52.22;100790.28;5046313;28;20160;-61
2023/07/18 02:14:29;;;;;;;5.20;2.13;;;;;;;23.94;52.03;100796.44;5040744;28;20207;-61
2023/07/18 02:16:54;;;;;;;8.90;2.20;;;;;;;23.94;51.95;100790.66;5066054;28;20522;-60
2023/07/18 02:19:20;;;;;;;4.00;1.97;;;;;;;23.93;51.85;100795.59;5058701;28;20187;-60
2023/07/18 02:21:46;;;;;;;4.27;2.03;;;;;;;23.93;51.88;100812.09;5059528;28;20175;-60
2023/07/18 02:24:11;;;;;;;4.80;2.00;;;;;;;23.89;52.05;100800.53;5066123;28;20626;-60
2023/07/18 02:26:38;;;;;;;3.40;2.03;;;;;;;23.89;51.94;100809.19;5047872;28;20175;-62
2023/07/18 02:29:03;;;;;;;5.60;2.10;;;;;;;23.89;52.07;100808.38;5063661;28;20245;-61
2023/07/18 02:31:28;;;;;;;3.20;1.60;;;;;;;23.84;52.28;100809.53;5066210;28;20417;-61
2023/07/18 02:33:54;;;;;;;6.90;2.43;;;;;;;23.86;52.23;100818.63;5062066;28;20179;-61
2023/07/18 02:36:21;;;;;;;5.00;1.77;;;;;;;23.84;52.28;100805.84;5083102;28;20182;-60
2023/07/18 02:38:47;;;;;;;8.50;2.33;;;;;;;23.85;52.26;100811.22;5085907;28;20164;-60
2023/07/18 02:41:12;;;;;;;7.93;2.20;;;;;;;23.85;52.04;100811.22;5049555;28;20449;-60
2023/07/18 02:43:38;;;;;;;6.63;2.30;;;;;;;23.85;52.13;100798.84;5065453;28;20245;-60
2023/07/18 02:46:03;;;;;;;3.80;2.00;;;;;;;23.84;52.23;100800.88;5065635;28;20215;-61
2023/07/18 02:48:29;;;;;;;4.13;2.00;;;;;;;23.84;52.40;100800.88;5064619;28;20401;-60
2023/07/18 02:50:54;;;;;;;4.60;1.80;;;;;;;23.82;52.70;100806.25;5060602;28;20185;-60
2023/07/18 02:53:20;;;;;;;3.60;1.60;;;;;;;23.82;52.30;100793.88;5067780;28;20182;-60
2023/07/18 02:55:45;;;;;;;5.10;2.00;;;;;;;23.83;52.37;100796.34;5071581;28;20597;-60
2023/07/18 02:58:11;;;;;;;6.90;2.10;;;;;;;23.83;52.22;100807.88;5069277;28;20167;-61
2023/07/18 03:00:36;;;;;;;4.03;2.23;;;;;;;23.82;52.14;100797.59;5067446;28;20176;-62
2023/07/18 03:03:02;;;;;;;6.00;1.83;;;;;;;23.80;52.26;100794.28;5068735;28;20175;-61
2023/07/18 03:05:28;;;;;;;4.17;2.57;;;;;;;23.81;52.51;100804.59;5068001;28;20203;-62
2023/07/18 03:07:54;;;;;;;3.73;1.73;;;;;;;23.82;52.55;100796.75;5062847;28;20198;-60
2023/07/18 03:10:23;;;;;;;3.83;1.80;;;;;;;23.78;52.45;100796.75;5051888;28;20171;-61
2023/07/18 03:12:49;;;;;;;3.30;1.53;;;;;;;23.80;52.51;100805.81;5069401;28;21022;-60
2023/07/18 03:15:16;;;;;;;3.60;1.70;;;;;;;23.79;52.62;100801.25;5069111;28;20469;-60
2023/07/18 03:17:41;;;;;;;3.97;2.10;;;;;;;23.80;52.27;100808.72;5052933;28;20207;-60
2023/07/18 03:20:16;;;;;;;4.37;2.10;;;;;;;23.78;52.28;100804.59;5050007;28;21204;-61
2023/07/18 03:22:44;;;;;;;2.93;1.60;;;;;;;23.75;51.98;100800.44;5053787;28;20627;-59
2023/07/18 03:25:10;;;;;;;3.30;2.10;;;;;;;23.76;51.93;100798.38;5067872;28;20461;-60
2023/07/18 03:27:35;;;;;;;3.03;1.57;;;;;;;23.75;51.75;100797.56;5070280;28;20758;-60
2023/07/18 03:30:01;;;;;;;3.43;1.73;;;;;;;23.75;51.99;100796.72;5070033;28;20178;-60
2023/07/18 03:32:26;;;;;;;6.67;2.17;;;;;;;23.72;52.14;100801.25;5055978;28;20196;-60
2023/07/18 03:34:52;;;;;;;4.30;2.37;;;;;;;23.74;52.12;100798.78;5051745;28;20175;-61
2023/07/18 03:37:17;;;;;;;4.50;1.80;;;;;;;23.72;52.06;100798.38;5084630;28;20788;-61
2023/07/18 03:39:43;;;;;;;4.00;2.30;;;;;;;23.73;52.16;100790.56;5083528;28;20187;-61
2023/07/18 03:42:08;;;;;;;4.40;1.90;;;;;;;23.71;52.08;100790.94;5052125;28;20187;-61
2023/07/18 03:44:34;;;;;;;4.13;2.10;;;;;;;23.69;52.13;100784.75;5088925;28;20198;-61
2023/07/18 03:46:59;;;;;;;4.17;2.17;;;;;;;23.68;52.13;100788.06;5066484;28;20591;-60
2023/07/18 03:49:25;;;;;;;4.33;1.80;;;;;;;23.66;51.90;100779.81;5076893;28;20598;-60
2023/07/18 03:51:50;;;;;;;5.13;2.27;;;;;;;23.62;52.09;100781.00;5067052;28;20159;-61
2023/07/18 03:54:15;;;;;;;8.13;2.23;;;;;;;23.61;51.99;100774.41;5064846;28;20244;-61
2023/07/18 03:56:41;;;;;;;3.83;2.03;;;;;;;23.57;51.65;100772.72;5065474;28;20187;-60
2023/07/18 03:59:06;;;;;;;3.27;1.97;;;;;;;23.55;51.76;100764.50;5055821;28;20194;-60
2023/07/18 04:01:32;;;;;;;6.93;2.10;;;;;;;23.55;51.58;100764.50;5054619;28;20187;-61
2023/07/18 04:03:57;;;;;;;6.30;2.17;;;;;;;23.57;51.79;100764.94;5066024;28;20182;-61
2023/07/18 04:06:23;;;;;;;3.53;1.83;;;;;;;23.58;51.57;100757.91;5080286;28;20187;-60
2023/07/18 04:08:48;;;;;;;5.00;2.10;;;;;;;23.59;51.74;100758.75;5081845;28;20175;-61
2023/07/18 04:11:14;;;;;;;8.83;2.00;;;;;;;23.60;51.83;100754.63;5048004;28;20697;-61
2023/07/18 04:13:39;;;;;;;6.23;2.10;;;;;;;23.59;51.57;100750.91;5047084;28;20279;-60
2023/07/18 04:16:05;;;;;;;8.77;2.27;;;;;;;23.59;51.57;100750.91;5050230;28;20734;-62
2023/07/18 04:18:31;;;;;;;4.53;2.00;;;;;;;23.58;51.73;100755.03;5047830;28;20190;-60
2023/07/18 04:21:01;;;;;;;3.83;1.90;;;;;;;23.60;51.77;100758.38;5062834;28;20437;-60
2023/07/18 04:23:26;;;;;;;4.87;1.97;;;;;;;23.60;51.59;100752.59;5050498;28;20568;-59
2023/07/18 04:26:01;;;;;;;5.00;2.13;;;;;;;23.60;51.97;100755.47;5045232;28;20476;-62
2023/07/18 04:28:28;;;;;;;5.10;1.83;;;;;;;23.59;51.63;100753.81;5060455;28;20229;-60
2023/07/18 04:30:54;;;;;;;3.93;1.83;;;;;;;23.60;52.25;100754.63;5052806;28;20437;-62
2023/07/18 04:33:19;;;;;;;5.00;2.10;;;;;;;23.58;52.23;100755.03;5065734;28;20417;-62
2023/07/18 04:35:45;;;;;;;4.33;1.77;;;;;;;23.59;52.51;100745.16;5067655;28;20175;-60
2023/07/18 04:38:12;;;;;;;4.83;2.07;;;;;;;23.60;52.37;100746.00;5080015;28;20187;-60
2023/07/18 04:40:37;;;;;;;3.33;2.00;;;;;;;23.60;52.27;100737.34;5050146;28;20450;-60
2023/07/18 04:43:02;;;;;;;6.13;1.63;;;;;;;23.60;52.44;100740.22;5062521;28;20444;-62
2023/07/18 04:45:28;;;;;;;4.43;2.00;;;;;;;23.57;52.83;100724.56;5066891;28;20241;-60
2023/07/18 04:47:53;;;;;;;3.67;2.40;;;;;;;23.59;52.55;100733.63;5081519;28;20232;-61
2023/07/18 04:50:19;;;;;;;5.47;1.80;;;;;;;23.61;52.69;100736.94;5065027;28;20191;-61
2023/07/18 04:52:44;;;;;;;4.20;1.83;;;;;;;23.61;52.69;100734.06;5087329;28;20174;-61
2023/07/18 04:55:10;;;;;;;4.07;1.80;;;;;;;23.63;52.69;100728.69;5031591;28;20618;-60
2023/07/18 04:57:36;;;;;;;5.27;2.00;;;;;;;23.65;52.75;100726.25;5069720;28;20206;-61
2023/07/18 05:00:02;;;;;;;3.00;1.80;;;;;;;23.64;52.77;100730.34;5062709;28;20558;-61
2023/07/18 05:02:28;;;;;;;6.47;1.97;;;;;;;23.62;53.07;100724.19;5073561;28;20575;-60
2023/07/18 05:04:53;;;;;;;8.37;1.80;;;;;;;23.62;53.09;100724.19;5072728;28;20545;-62
2023/07/18 05:07:19;;;;;;;4.43;1.93;;;;;;;23.60;53.16;100720.88;5084993;28;20647;-61
2023/07/18 05:09:46;;;;;;;4.03;1.90;;;;;;;23.61;53.07;100722.53;5058838;28;20662;-61
2023/07/18 05:12:11;;;;;;;5.70;2.07;;;;;;;23.60;53.08;100720.88;5057914;28;20188;-60
2023/07/18 05:14:37;;;;;;;11.03;2.47;;;;;;;23.61;53.38;100719.66;5050664;28;20475;-61
2023/07/18 05:17:02;;;;;;;6.33;2.20;;;;;;;23.59;53.48;100721.28;5079796;28;20186;-60
2023/07/18 05:19:28;;;;;;;8.70;1.93;;;;;;;23.59;53.43;100722.09;5087454;28;20177;-60
2023/07/18 05:21:53;;;;;;;4.20;2.10;;;;;;;23.61;53.81;100719.66;5056675;28;20194;-60
2023/07/18 05:24:19;;;;;;;10.03;2.10;;;;;;;23.63;53.77;100717.19;5053259;28;20669;-61
2023/07/18 05:26:44;;;;;;;7.80;2.17;;;;;;;23.64;53.74;100712.25;5086306;28;20630;-61
2023/07/18 05:29:10;;;;;;;6.97;1.93;;;;;;;23.64;53.74;100713.06;5077868;28;20658;-60
2023/07/18 05:31:35;;;;;;;5.47;2.20;;;;;;;23.65;54.08;100708.13;5061833;28;20202;-61
2023/07/18 05:34:00;;;;;;;6.20;2.10;;;;;;;23.66;54.00;100706.88;5060575;28;20204;-60
2023/07/18 05:36:26;;;;;;;5.10;2.27;;;;;;;23.68;53.91;100702.38;5075960;28;20230;-62
2023/07/18 05:38:51;;;;;;;5.13;2.30;;;;;;;23.70;53.96;100694.16;5064193;28;20187;-60
2023/07/18 05:41:17;;;;;;;8.23;2.20;;;;;;;23.72;53.88;100696.59;5068452;28;20171;-60
2023/07/18 05:43:42;;;;;;;4.60;2.50;;;;;;;23.70;53.93;100688.38;5059337;28;20188;-60
2023/07/18 05:46:09;;;;;;;8.03;2.90;;;;;;;23.68;54.27;100690.84;5063988;28;20213;-61
2023/07/18 05:48:35;;;;;;;4.70;2.50;;;;;;;23.68;54.35;100690.84;5046680;28;20183;-61
2023/07/18 05:51:01;;;;;;;8.30;2.70;;;;;;;23.65;54.09;100682.19;5067827;28;20883;-60
2023/07/18 05:53:26;;;;;;;5.80;2.30;;;;;;;23.65;54.43;100679.28;5071122;28;20171;-62
2023/07/18 05:55:52;;;;;;;5.77;2.60;;;;;;;23.64;53.95;100684.22;5060862;28;20175;-61
2023/07/18 05:58:17;;;;;;;7.50;2.60;;;;;;;23.63;53.95;100682.56;5044817;28;20607;-61
2023/07/18 06:00:43;;;;;;;5.40;2.30;;;;;;;23.62;54.37;100675.16;5070597;28;20279;-61
2023/07/18 06:03:08;;;;;;;7.50;2.57;;;;;;;23.64;54.16;100677.66;5071126;28;20194;-60
2023/07/18 06:05:37;;;;;;;8.00;2.40;;;;;;;23.65;54.02;100680.13;5077556;28;20213;-60
2023/07/18 06:08:03;;;;;;;4.63;1.90;;;;;;;23.66;54.24;100678.91;5026325;28;20860;-60
2023/07/18 06:10:29;;;;;;;4.10;2.60;;;;;;;23.65;54.24;100674.38;5063396;28;20441;-61
2023/07/18 06:12:54;;;;;;;9.57;2.70;;;;;;;23.70;53.75;100679.75;5056874;28;20459;-60
2023/07/18 06:15:20;;;;;;;4.70;2.50;;;;;;;23.70;54.08;100676.84;5063939;28;20231;-61
2023/07/18 06:17:45;;;;;;;8.60;2.13;;;;;;;23.75;54.17;100673.56;5049168;28;20537;-60
2023/07/18 06:20:14;;;;;;;6.20;2.33;;;;;;;23.77;53.67;100676.03;5055012;28;20183;-60
2023/07/18 06:22:40;;;;;;;11.57;2.77;;;;;;;23.75;53.69;100672.75;5065717;28;20855;-61
2023/07/18 06:25:06;;;;;;;5.10;2.53;;;;;;;23.74;53.74;100677.66;5067173;28;20452;-60
2023/07/18 06:27:32;;;;;;;8.20;2.50;;;;;;;23.71;54.20;100681.38;5033146;28;20438;-59
2023/07/18 06:29:58;;;;;;;6.13;2.67;;;;;;;23.71;54.12;100684.25;5057658;28;20943;-60
2023/07/18 06:32:24;;;;;;;6.83;2.33;;;;;;;23.70;53.84;100682.63;5052977;28;20282;-61
2023/07/18 06:34:49;;;;;;;5.83;2.60;;;;;;;23.70;53.95;100673.97;5049938;28;20516;-60
2023/07/18 06:37:15;;;;;;;5.13;2.20;;;;;;;23.69;53.62;100680.94;5068249;28;20190;-60
2023/07/18 06:39:40;;;;;;;6.57;2.33;;;;;;;23.70;53.87;100668.22;5038936;28;20249;-60
2023/07/18 06:42:08;;;;;;;4.83;2.00;;;;;;;23.69;53.79;100669.41;5042636;28;20217;-60
2023/07/18 06:44:34;;;;;;;16.03;3.07;;;;;;;23.69;53.76;100665.72;5066260;28;20921;-61
2023/07/18 06:46:59;;;;;;;9.13;2.90;;;;;;;23.71;53.65;100663.25;5043951;28;20611;-61
2023/07/18 06:49:25;;;;;;;5.07;2.53;;;;;;;23.71;53.77;100666.13;5048758;28;20172;-62
2023/07/18 06:51:51;;;;;;;5.33;2.70;;;;;;;23.71;53.78;100661.19;5059715;28;20614;-61
2023/07/18 06:54:17;;;;;;;6.23;2.20;;;;;;;23.72;54.02;100662.84;5050694;28;20163;-61
2023/07/18 06:56:44;;;;;;;4.30;2.57;;;;;;;23.70;53.56;100662.44;5056564;28;20999;-60
2023/07/18 06:59:10;;;;;;;13.73;2.80;;;;;;;23.72;53.98;100668.59;5053012;28;20687;-61
2023/07/18 07:01:35;;;;;;;5.57;2.50;;;;;;;23.73;54.10;100655.03;5079361;28;20447;-60
2023/07/18 07:04:01;;;;;;;12.57;3.00;;;;;;;23.74;53.88;100651.72;5050965;28;20285;-59
2023/07/18 07:06:27;;;;;;;12.10;3.17;;;;;;;23.77;54.01;100653.78;5070726;28;20183;-60
2023/07/18 07:08:52;;;;;;;5.63;2.73;;;;;;;23.77;54.05;100650.06;5068611;28;20416;-60
2023/07/18 07:11:18;;;;;;;7.90;2.90;;;;;;;23.78;53.90;100645.97;5061752;28;20186;-59
2023/07/18 07:13:44;;;;;;;5.73;2.60;;;;;;;23.76;54.05;100646.38;5053110;28;20189;-60
2023/07/18 07:16:10;;;;;;;6.93;2.80;;;;;;;23.76;54.37;100646.38;5076938;28;20351;-61
2023/07/18 07:18:35;;;;;;;6.63;2.47;;;;;;;23.76;54.33;100645.53;5070367;28;20932;-61
2023/07/18 07:21:01;;;;;;;4.07;2.70;;;;;;;23.75;54.35;100641.84;5088495;28;20175;-60
2023/07/18 07:23:28;;;;;;;7.37;2.77;;;;;;;23.76;54.29;100636.91;5069358;28;20187;-60
2023/07/18 07:25:54;;;;;;;5.17;2.53;;;;;;;23.75;54.52;100635.25;5058667;28;20369;-61
2023/07/18 07:28:22;;;;;;;7.57;3.23;;;;;;;23.74;54.56;100637.28;5066822;28;20510;-61
2023/07/18 07:30:48;;;;;;;9.50;2.67;;;;;;;23.76;54.50;100637.75;5065320;28;20472;-61
2023/07/18 07:33:14;;;;;;;8.43;2.43;;;;;;;23.76;54.34;100623.31;5072712;28;20903;-61
2023/07/18 07:35:39;;;;;;;8.67;2.80;;;;;;;23.76;54.40;100623.31;5052315;28;20582;-60
2023/07/18 07:38:05;;;;;;;7.73;2.97;;;;;;;23.78;54.68;100614.25;5058864;28;20578;-61
2023/07/18 07:40:31;;;;;;;6.43;2.83;;;;;;;23.78;54.90;100612.19;5046364;28;20178;-61
2023/07/18 07:42:56;;;;;;;7.47;3.40;;;;;;;23.78;54.54;100620.84;5064557;28;20520;-60
2023/07/18 07:45:25;;;;;;;8.13;2.87;;;;;;;23.77;54.43;100618.34;5044609;28;20275;-61
2023/07/18 07:47:50;;;;;;;8.13;3.00;;;;;;;23.79;55.21;100610.94;5059920;28;20212;-61
2023/07/18 07:50:16;;;;;;;8.20;3.10;;;;;;;23.80;54.96;100617.56;5081056;28;20429;-60
2023/07/18 07:52:42;;;;;;;6.77;2.73;;;;;;;23.80;54.86;100612.63;5070730;28;20183;-60
2023/07/18 07:55:09;;;;;;;7.10;2.50;;;;;;;23.83;54.80;100606.00;5066771;28;20189;-62
2023/07/18 07:57:35;;;;;;;5.60;2.90;;;;;;;24.01;55.47;100600.31;5052603;28;20493;-61
2023/07/18 08:00:01;;;;;;;5.90;3.20;;;;;;;24.16;56.75;100594.13;5047576;28;20429;-60
2023/07/18 08:02:26;;;;;;;10.67;4.30;;;;;;;24.34;58.82;100597.81;5056564;28;20191;-60
2023/07/18 08:04:52;;;;;;;18.47;5.90;;;;;;;24.41;58.90;100597.00;5050131;28;20207;-61
2023/07/18 08:07:17;;;;;;;18.90;4.73;;;;;;;24.33;59.28;100601.16;5065450;28;20658;-61
2023/07/18 08:09:43;;;;;;;11.23;3.90;;;;;;;24.22;58.56;100604.03;5066952;28;20187;-60
2023/07/18 08:12:10;;;;;;;14.37;4.00;;;;;;;24.27;58.88;100605.66;5062991;28;20193;-60
2023/07/18 08:14:37;;;;;;;6.30;3.17;;;;;;;24.32;58.74;100603.19;5054246;28;20247;-62
2023/07/18 08:17:03;;;;;;;8.70;3.43;;;;;;;24.46;59.52;100599.47;5061767;28;20572;-60
2023/07/18 08:19:29;;;;;;;8.77;3.97;;;;;;;24.54;58.98;100601.91;5047892;28;20426;-60
2023/07/18 08:21:54;;;;;;;11.30;3.37;;;;;;;24.50;58.28;100601.13;5062256;28;20433;-60
2023/07/18 08:24:20;;;;;;;10.50;3.00;;;;;;;24.44;57.54;100608.53;5045421;28;20184;-60
2023/07/18 08:26:46;;;;;;;6.00;3.50;;;;;;;24.51;57.90;100608.53;5045346;28;20718;-61
2023/07/18 08:29:11;;;;;;;7.80;3.30;;;;;;;24.59;58.92;100604.41;5034586;28;20180;-62
2023/07/18 08:31:37;;;;;;;11.33;3.13;;;;;;;24.49;57.54;100601.53;5036815;28;20190;-62
2023/07/18 08:34:02;;;;;;;6.40;2.83;;;;;;;24.43;58.39;100588.75;5063296;28;20612;-60
2023/07/18 08:36:29;;;;;;;9.80;2.90;;;;;;;24.40;57.85;100580.91;5053098;28;20184;-62
2023/07/18 08:38:55;;;;;;;8.70;3.40;;;;;;;24.38;55.96;100583.41;5037725;28;20517;-59
2023/07/18 08:41:20;;;;;;;6.37;2.70;;;;;;;24.36;56.17;100574.31;5031243;28;20421;-61
2023/07/18 08:43:50;;;;;;;9.83;2.63;;;;;;;24.37;55.97;100578.84;5051922;28;20881;-60
2023/07/18 08:46:16;;;;;;;7.70;3.30;;;;;;;24.36;55.57;100566.50;5042433;28;20207;-60
2023/07/18 08:48:45;;;;;;;6.90;2.63;;;;;;;24.34;54.79;100557.41;5010752;28;20427;-60
2023/07/18 08:51:11;;;;;;;9.70;2.47;;;;;;;24.35;54.56;100559.09;4991932;28;20419;-61
2023/07/18 08:53:43;;;;;;;6.60;2.60;;;;;;;24.32;54.83;100559.91;5058321;28;20422;-61
2023/07/18 08:56:09;;;;;;;4.60;2.10;;;;;;;24.31;54.29;100546.72;5044568;28;21196;-62
2023/07/18 08:58:38;;;;;;;4.93;2.60;;;;;;;24.29;54.55;100543.41;5049921;28;20426;-61
2023/07/18 09:01:08;;;;;;;4.70;2.30;;;;;;;24.28;54.11;100547.53;5047750;28;20619;-62
2023/07/18 09:03:33;;;;;;;7.07;2.60;;;;;;;24.27;54.00;100547.94;5044647;28;20890;-61
2023/07/18 09:06:02;;;;;;;4.60;2.00;;;;;;;24.32;54.06;100562.78;5052865;28;20920;-61
2023/07/18 09:08:28;;;;;;;5.60;2.57;;;;;;;24.35;54.08;100567.75;5059386;28;20187;-60
2023/07/18 09:11:03;;;;;;;8.00;2.40;;;;;;;24.43;54.32;100574.34;5026187;28;20502;-60
2023/07/18 09:13:31;;;;;;;7.03;2.50;;;;;;;24.39;54.00;100567.72;5049071;28;20182;-61
2023/07/18 09:15:57;;;;;;;5.57;2.30;;;;;;;24.35;54.24;100564.84;5012833;28;20553;-60
2023/07/18 09:18:22;;;;;;;9.73;2.23;;;;;;;24.35;54.50;100581.34;5047006;28;20923;-63
2023/07/18 09:20:47;;;;;;;6.63;2.53;;;;;;;24.33;54.96;100599.06;5020557;28;20552;-61
2023/07/18 09:23:13;;;;;;;6.80;2.40;;;;;;;24.32;54.59;100614.75;5057205;28;20547;-61
2023/07/18 09:25:39;;;;;;;6.07;2.20;;;;;;;24.34;54.36;100641.13;5011729;28;20246;-62
2023/07/18 09:28:05;;;;;;;7.07;2.87;;;;;;;24.29;54.45;100676.16;5026896;28;20687;-60
2023/07/18 09:30:36;;;;;;;9.07;2.33;;;;;;;24.29;54.08;100686.91;4992572;28;20427;-60
2023/07/18 09:33:05;;;;;;;10.27;2.63;;;;;;;24.27;54.24;100669.16;5048440;28;20183;-60
2023/07/18 09:35:40;;;;;;;5.30;2.00;;;;;;;24.24;54.13;100662.13;5033393;28;20421;-61
2023/07/18 09:38:09;;;;;;;10.43;2.37;;;;;;;24.22;54.02;100637.81;5021559;28;20434;-61
2023/07/18 09:40:35;;;;;;;9.47;2.43;;;;;;;24.20;54.43;100626.72;5022253;28;20430;-61
2023/07/18 09:43:00;;;;;;;4.90;2.00;;;;;;;24.20;54.13;100628.75;5045221;28;20449;-61
2023/07/18 09:45:27;;;;;;;4.23;2.20;;;;;;;24.19;53.83;100598.25;5043530;28;20470;-62
2023/07/18 09:47:52;;;;;;;15.37;2.80;;;;;;;24.19;53.68;100598.25;5036108;28;20183;-61
2023/07/18 09:50:18;;;;;;;8.30;2.40;;;;;;;24.22;55.27;100560.75;5053895;28;20449;-61
2023/07/18 09:52:49;;;;;;;10.53;2.67;;;;;;;24.21;55.15;100461.00;5063586;28;20183;-61
2023/07/18 09:55:14;;;;;;;11.23;2.90;;;;;;;24.21;55.87;100362.88;5045671;28;20214;-60
2023/07/18 09:57:41;;;;;;;15.90;2.73;;;;;;;24.24;56.19;100309.28;5027629;28;20438;-60
2023/07/18 10:00:09;;;;;;;8.27;2.80;;;;;;;24.23;56.16;100301.88;5046735;28;20167;-60
2023/07/18 10:02:34;;;;;;;5.90;2.50;;;;;;;24.21;56.59;100331.16;5037156;28;20493;-60
2023/07/18 10:05:04;;;;;;;7.33;2.90;;;;;;;24.23;56.07;100348.84;5029907;28;20471;-60
2023/07/18 10:07:35;;;;;;;10.03;3.00;;;;;;;24.23;55.76;100369.06;5030037;28;20261;-60
2023/07/18 10:10:01;;;;;;;6.50;2.30;;;;;;;24.25;55.92;100409.88;5031011;28;20434;-60
2023/07/18 10:12:26;;;;;;;6.63;2.93;;;;;;;24.24;55.92;100425.50;5029578;28;20427;-61
2023/07/18 10:14:56;;;;;;;9.00;2.13;;;;;;;24.25;55.86;100406.16;5031404;28;20434;-62
2023/07/18 10:17:40;;;;;;;11.53;2.90;;;;;;;24.24;56.07;100408.19;5053355;28;20219;-62
2023/07/18 10:20:11;;;;;;;7.50;2.60;;;;;;;24.27;55.88;100491.06;5052281;28;20441;-60
2023/07/18 10:22:36;;;;;;;6.17;2.33;;;;;;;24.28;55.89;100566.94;5048429;28;21391;-61
2023/07/18 10:25:06;;;;;;;8.60;2.40;;;;;;;24.31;55.63;100639.06;5050527;28;20461;-61
2023/07/18 10:27:42;;;;;;;6.40;2.20;;;;;;;24.32;55.71;100697.59;5014288;28;20183;-61
2023/07/18 10:30:09;;;;;;;6.93;2.23;;;;;;;24.32;55.48;100709.97;5049359;28;20444;-61
2023/07/18 10:32:36;;;;;;;6.73;2.90;;;;;;;24.30;55.20;100669.16;5053236;28;20441;-62
2023/07/18 10:35:06;;;;;;;9.07;2.90;;;;;;;24.28;55.49;100633.31;5049050;28;20418;-61
2023/07/18 10:37:32;;;;;;;4.63;1.90;;;;;;;24.27;55.95;100637.41;5031741;28;20499;-60
2023/07/18 10:39:57;;;;;;;6.47;3.07;;;;;;;24.26;55.87;100629.97;5049739;28;20430;-61
2023/07/18 10:42:30;;;;;;;8.60;2.50;;;;;;;24.24;55.86;100581.34;5053873;28;20643;-60
2023/07/18 10:45:03;;;;;;;7.10;2.07;;;;;;;24.23;55.93;100559.50;5068742;28;20214;-60
2023/07/18 10:47:29;;;;;;;6.40;2.70;;;;;;;24.21;55.86;100530.25;5044652;28;20450;-60
2023/07/18 10:49:55;;;;;;;3.93;2.30;;;;;;;24.21;56.39;100544.66;5049506;28;20425;-62
2023/07/18 10:52:21;;;;;;;4.43;2.60;;;;;;;24.22;56.32;100606.91;5032136;28;20179;-60
2023/07/18 10:54:49;;;;;;;5.17;2.63;;;;;;;24.23;56.24;100617.22;5058378;28;20190;-61
2023/07/18 10:57:15;;;;;;;8.23;2.70;;;;;;;24.24;56.05;100603.63;5069724;28;20179;-59
2023/07/18 10:59:44;;;;;;;5.30;2.60;;;;;;;24.23;55.96;100602.78;5041459;28;20500;-60
2023/07/18 11:02:10;;;;;;;7.40;2.60;;;;;;;24.23;56.22;100620.09;5047464;28;20428;-59
2023/07/18 11:04:36;;;;;;;4.67;2.27;;;;;;;24.23;56.32;100610.63;5067637;28;20470;-59
2023/07/18 11:07:01;;;;;;;10.23;2.90;;;;;;;24.21;56.34;100567.75;5036839;28;20464;-60
2023/07/18 11:09:27;;;;;;;9.27;2.20;;;;;;;24.19;56.44;100547.13;5068770;28;20187;-60
2023/07/18 11:11:53;;;;;;;4.33;2.23;;;;;;;24.20;56.02;100531.47;5038645;28;20191;-61
2023/07/18 11:14:19;;;;;;;5.17;2.37;;;;;;;24.20;56.11;100534.38;5014150;28;20233;-60
2023/07/18 11:16:45;;;;;;;7.50;2.23;;;;;;;24.22;55.78;100493.53;5018813;28;20481;-61
2023/07/18 11:19:10;;;;;;;5.17;2.00;;;;;;;24.21;56.50;100492.72;5011224;28;20560;-60